createdAt,value
2014-09-24T00:00:06.683Z,12.04
2014-09-24T00:01:11.358Z,11.72
2014-09-24T00:02:16.047Z,11.68
2014-09-24T00:03:20.721Z,11.56
2014-09-24T00:04:25.396Z,11.78
2014-09-24T00:05:30.382Z,11.74
2014-09-24T00:06:35.056Z,11.78
2014-09-24T00:07:39.746Z,11.84
2014-09-24T00:08:44.420Z,11.86
2014-09-24T00:09:49.406Z,11.92
2014-09-24T00:10:54.081Z,11.96
2014-09-24T00:11:59.052Z,11.68
2014-09-24T00:13:03.740Z,11.97
2014-09-24T00:14:08.712Z,11.92
2014-09-24T00:15:13.386Z,11.68
2014-09-24T00:16:18.074Z,11.57
2014-09-24T00:17:22.748Z,11.4
2014-09-24T00:18:27.423Z,11.29
2014-09-24T00:19:32.113Z,11.46
2014-09-24T00:20:37.083Z,11.62
2014-09-24T00:21:41.773Z,11.72
2014-09-24T00:22:46.447Z,11.75
2014-09-24T00:23:51.121Z,11.74
2014-09-24T00:24:55.810Z,11.51
2014-09-24T00:26:00.485Z,11.58
2014-09-24T00:27:05.159Z,11.69
2014-09-24T00:28:10.458Z,11.84
2014-09-24T00:29:15.132Z,11.64
2014-09-24T00:30:19.821Z,11.56
2014-09-24T00:31:24.495Z,11.44
2014-09-24T00:32:29.466Z,11.49
2014-09-24T00:33:34.452Z,11.56
2014-09-24T00:34:39.126Z,11.58
2014-09-24T00:35:43.800Z,11.62
2014-09-24T00:36:48.489Z,11.7
2014-09-24T00:37:53.461Z,11.58
2014-09-24T00:38:58.446Z,11.57
2014-09-24T00:40:03.417Z,11.6
2014-09-24T00:41:08.108Z,11.35
2014-09-24T00:42:13.077Z,11.13
2014-09-24T00:43:17.768Z,11.21
2014-09-24T00:44:22.739Z,11.63
2014-09-24T00:45:27.428Z,11.58
2014-09-24T00:46:32.102Z,11.28
2014-09-24T00:47:36.776Z,11.58
2014-09-24T00:48:41.465Z,11.32
2014-09-24T00:49:46.436Z,11.3
2014-09-24T00:50:51.423Z,11.28
2014-09-24T00:51:56.096Z,11.5
2014-09-24T00:53:00.786Z,11.62
2014-09-24T00:54:05.461Z,11.69
2014-09-24T00:55:10.446Z,11.42
2014-09-24T00:56:15.121Z,11.48
2014-09-24T00:57:19.795Z,11.41
2014-09-24T00:58:24.483Z,11.54
2014-09-24T00:59:29.157Z,10.98
2014-09-24T01:00:33.831Z,10.96
2014-09-24T01:01:38.522Z,10.92
2014-09-24T01:02:43.210Z,10.61
2014-09-24T01:03:48.182Z,10.9
2014-09-24T01:04:52.856Z,10.98
2014-09-24T01:05:57.842Z,10.94
2014-09-24T01:07:02.829Z,11.29
2014-09-24T01:08:07.799Z,11.33
2014-09-24T01:09:12.490Z,11.42
2014-09-24T01:10:17.460Z,11.56
2014-09-24T01:11:22.150Z,11.32
2014-09-24T01:12:27.121Z,11.34
2014-09-24T01:13:31.809Z,11.5
2014-09-24T01:14:36.781Z,11.48
2014-09-24T01:15:41.767Z,11.37
2014-09-24T01:16:46.737Z,11.35
2014-09-24T01:17:51.725Z,11.4
2014-09-24T01:18:55.727Z,11.16
2014-09-24T01:20:00.400Z,11.12
2014-09-24T01:21:05.090Z,11.34
2014-09-24T01:22:09.764Z,11.41
2014-09-24T01:23:14.750Z,11.12
2014-09-24T01:24:19.425Z,11.17
2014-09-24T01:25:24.410Z,11.16
2014-09-24T01:26:29.084Z,11.28
2014-09-24T01:27:34.072Z,11.08
2014-09-24T01:28:38.746Z,10.83
2014-09-24T01:29:43.732Z,11.17
2014-09-24T01:30:48.406Z,11.28
2014-09-24T01:31:53.095Z,11.01
2014-09-24T01:32:58.066Z,11.31
2014-09-24T01:34:02.756Z,11.39
2014-09-24T01:35:07.429Z,11.04
2014-09-24T01:36:12.416Z,10.83
2014-09-24T01:37:17.387Z,10.8
2014-09-24T01:38:22.077Z,10.7
2014-09-24T01:39:26.751Z,10.65
2014-09-24T01:40:31.439Z,10.73
2014-09-24T01:41:36.410Z,10.84
2014-09-24T01:42:41.398Z,10.7
2014-09-24T01:43:46.071Z,10.64
2014-09-24T01:44:51.057Z,10.76
2014-09-24T01:45:55.732Z,10.8
2014-09-24T01:47:00.406Z,10.74
2014-09-24T01:48:05.095Z,10.77
2014-09-24T01:49:09.769Z,10.83
2014-09-24T01:50:14.755Z,10.71
2014-09-24T01:51:19.743Z,10.88
2014-09-24T01:52:24.416Z,11.05
2014-09-24T01:53:29.106Z,11.26
2014-09-24T01:54:34.077Z,11.24
2014-09-24T01:55:39.062Z,11.34
2014-09-24T01:56:44.034Z,11.36
2014-09-24T01:57:48.722Z,11.03
2014-09-24T01:58:53.413Z,10.92
2014-09-24T01:59:58.384Z,10.86
2014-09-24T02:01:03.370Z,10.81
2014-09-24T02:02:08.341Z,10.69
2014-09-24T02:03:13.030Z,10.72
2014-09-24T02:04:17.704Z,10.98
2014-09-24T02:05:22.691Z,11.05
2014-09-24T02:06:27.661Z,11.16
2014-09-24T02:07:32.351Z,11.26
2014-09-24T02:08:37.322Z,11.29
2014-09-24T02:09:42.308Z,11.25
2014-09-24T02:10:46.983Z,11.25
2014-09-24T02:11:51.985Z,10.88
2014-09-24T02:12:56.673Z,10.99
2014-09-24T02:14:01.379Z,10.89
2014-09-24T02:15:06.069Z,11.13
2014-09-24T02:16:11.337Z,11.17
2014-09-24T02:17:16.026Z,11.18
2014-09-24T02:18:20.700Z,11.18
2014-09-24T02:19:25.406Z,11.1
2014-09-24T02:20:30.080Z,11.16
2014-09-24T02:21:34.768Z,11.05
2014-09-24T02:22:39.442Z,11.03
2014-09-24T02:23:44.133Z,11.12
2014-09-24T02:24:48.807Z,11.14
2014-09-24T02:25:53.793Z,10.94
2014-09-24T02:26:58.764Z,10.97
2014-09-24T02:28:03.452Z,10.92
2014-09-24T02:29:08.126Z,10.95
2014-09-24T02:30:12.817Z,10.62
2014-09-24T02:31:17.787Z,10.6
2014-09-24T02:32:22.477Z,10.72
2014-09-24T02:33:27.151Z,11.08
2014-09-24T02:34:31.840Z,11.06
2014-09-24T02:35:36.514Z,10.99
2014-09-24T02:36:41.502Z,10.95
2014-09-24T02:37:46.174Z,10.9
2014-09-24T02:38:50.864Z,10.97
2014-09-24T02:39:55.539Z,10.6
2014-09-24T02:41:00.228Z,10.56
2014-09-24T02:42:05.199Z,10.57
2014-09-24T02:43:09.889Z,10.86
2014-09-24T02:44:14.859Z,10.68
2014-09-24T02:45:19.830Z,10.86
2014-09-24T02:46:24.520Z,10.42
2014-09-24T02:47:29.209Z,10.65
2014-09-24T02:48:33.883Z,10.48
2014-09-24T02:49:38.572Z,10.7
2014-09-24T02:50:43.543Z,10.73
2014-09-24T02:51:48.234Z,10.46
2014-09-24T02:52:52.907Z,10.42
2014-09-24T02:53:57.893Z,10.34
2014-09-24T02:55:02.568Z,10.4
2014-09-24T02:56:07.554Z,10.44
2014-09-24T02:57:12.228Z,10.7
2014-09-24T02:58:17.199Z,10.8
2014-09-24T02:59:21.904Z,10.82
2014-09-24T03:00:26.593Z,10.93
2014-09-24T03:01:31.267Z,10.7
2014-09-24T03:02:35.941Z,10.28
2014-09-24T03:03:40.616Z,10.23
2014-09-24T03:04:45.601Z,10.26
2014-09-24T03:05:50.572Z,10.36
2014-09-24T03:06:55.262Z,10.33
2014-09-24T03:07:59.249Z,10.38
2014-09-24T03:09:04.234Z,10.41
2014-09-24T03:10:09.205Z,10.47
2014-09-24T03:11:14.177Z,10.52
2014-09-24T03:12:18.866Z,10.51
2014-09-24T03:13:23.539Z,10.58
2014-09-24T03:14:28.230Z,10.63
2014-09-24T03:15:33.201Z,10.87
2014-09-24T03:16:38.187Z,10.92
2014-09-24T03:17:43.158Z,10.7
2014-09-24T03:18:47.832Z,10.52
2014-09-24T03:19:52.505Z,10.67
2014-09-24T03:20:57.492Z,10.75
2014-09-24T03:22:02.166Z,10.65
2014-09-24T03:23:06.840Z,10.83
2014-09-24T03:24:11.826Z,10.88
2014-09-24T03:25:16.501Z,10.97
2014-09-24T03:26:21.175Z,11
2014-09-24T03:27:25.849Z,11.02
2014-09-24T03:28:30.554Z,10.88
2014-09-24T03:29:35.242Z,11.04
2014-09-24T03:30:39.917Z,11.11
2014-09-24T03:31:44.903Z,10.57
2014-09-24T03:32:49.577Z,10.48
2014-09-24T03:33:54.251Z,10.53
2014-09-24T03:34:58.942Z,10.43
2014-09-24T03:36:03.615Z,10.45
2014-09-24T03:37:08.585Z,10.38
2014-09-24T03:38:13.573Z,10.39
2014-09-24T03:39:18.542Z,10.42
2014-09-24T03:40:23.216Z,10.66
2014-09-24T03:41:27.890Z,10.77
2014-09-24T03:42:32.581Z,10.4
2014-09-24T03:43:37.255Z,10.46
2014-09-24T03:44:42.225Z,10.6
2014-09-24T03:45:46.915Z,10.88
2014-09-24T03:46:51.589Z,10.98
2014-09-24T03:47:56.575Z,10.74
2014-09-24T03:49:01.249Z,10.74
2014-09-24T03:50:05.923Z,10.76
2014-09-24T03:51:10.612Z,10.78
2014-09-24T03:52:14.599Z,10.76
2014-09-24T03:53:19.273Z,10.47
2014-09-24T03:54:23.963Z,10.43
2014-09-24T03:55:28.934Z,10.68
2014-09-24T03:56:33.623Z,10.78
2014-09-24T03:57:38.296Z,10.82
2014-09-24T03:58:42.971Z,10.82
2014-09-24T03:59:47.676Z,10.97
2014-09-24T04:00:52.350Z,10.96
2014-09-24T04:01:57.024Z,10.86
2014-09-24T04:03:01.713Z,10.63
2014-09-24T04:04:06.403Z,10.44
2014-09-24T04:05:11.077Z,10.47
2014-09-24T04:06:15.751Z,10.4
2014-09-24T04:07:20.440Z,10.44
2014-09-24T04:08:25.115Z,10.35
2014-09-24T04:09:29.789Z,10.24
2014-09-24T04:10:34.477Z,10.42
2014-09-24T04:11:39.151Z,10.49
2014-09-24T04:12:43.841Z,10.39
2014-09-24T04:13:48.813Z,10.42
2014-09-24T04:14:53.486Z,10.46
2014-09-24T04:15:58.160Z,10.28
2014-09-24T04:17:02.850Z,10.6
2014-09-24T04:18:07.524Z,10.74
2014-09-24T04:19:12.213Z,10.94
2014-09-24T04:20:16.888Z,10.86
2014-09-24T04:21:21.562Z,10.91
2014-09-24T04:22:26.250Z,10.75
2014-09-24T04:23:30.924Z,10.9
2014-09-24T04:24:35.598Z,10.68
2014-09-24T04:25:40.273Z,10.61
2014-09-24T04:26:45.258Z,10.56
2014-09-24T04:27:50.229Z,10.46
2014-09-24T04:28:54.920Z,10.54
2014-09-24T04:29:59.594Z,10.54
2014-09-24T04:31:04.267Z,10.78
2014-09-24T04:32:08.941Z,10.78
2014-09-24T04:33:13.631Z,10.88
2014-09-24T04:34:18.305Z,10.98
2014-09-24T04:35:22.979Z,10.64
2014-09-24T04:36:27.949Z,10.62
2014-09-24T04:37:32.640Z,10.66
2014-09-24T04:38:37.313Z,10.3
2014-09-24T04:39:41.987Z,10.37
2014-09-24T04:40:46.676Z,10.54
2014-09-24T04:41:51.351Z,10.69
2014-09-24T04:42:56.025Z,10.39
2014-09-24T04:44:00.699Z,10.37
2014-09-24T04:45:05.387Z,10.43
2014-09-24T04:46:09.375Z,10.16
2014-09-24T04:47:14.361Z,10.25
2014-09-24T04:48:19.332Z,10.47
2014-09-24T04:49:24.302Z,10.4
2014-09-24T04:50:28.993Z,10.27
2014-09-24T04:51:33.666Z,10.2
2014-09-24T04:52:38.340Z,10.34
2014-09-24T04:53:43.014Z,10.06
2014-09-24T04:54:47.703Z,10.38
2014-09-24T04:55:52.378Z,10.06
2014-09-24T04:56:57.052Z,10.08
2014-09-24T04:58:02.053Z,10.08
2014-09-24T04:59:06.728Z,9.99
2014-09-24T05:00:11.402Z,10.09
2014-09-24T05:01:16.075Z,10.15
2014-09-24T05:02:20.749Z,10.37
2014-09-24T05:03:25.439Z,10.26
2014-09-24T05:04:30.113Z,10.37
2014-09-24T05:05:34.802Z,10.44
2014-09-24T05:06:39.774Z,10.56
2014-09-24T05:07:44.744Z,10.4
2014-09-24T05:08:49.433Z,10.55
2014-09-24T05:09:54.108Z,10.68
2014-09-24T05:10:59.079Z,10.62
2014-09-24T05:12:03.767Z,10.42
2014-09-24T05:13:08.441Z,10.05
2014-09-24T05:14:13.116Z,10.1
2014-09-24T05:15:17.806Z,10.36
2014-09-24T05:16:22.479Z,10.42
2014-09-24T05:17:27.153Z,10.6
2014-09-24T05:18:31.827Z,10.66
2014-09-24T05:19:36.517Z,10.67
2014-09-24T05:20:41.487Z,10.53
2014-09-24T05:21:46.177Z,10.24
2014-09-24T05:22:51.148Z,10.18
2014-09-24T05:23:55.822Z,10.56
2014-09-24T05:25:00.495Z,10.73
2014-09-24T05:26:05.186Z,10.75
2014-09-24T05:27:09.860Z,10.7
2014-09-24T05:28:14.549Z,10.62
2014-09-24T05:29:19.228Z,10.41
2014-09-24T05:30:24.204Z,10.46
2014-09-24T05:31:28.878Z,10.48
2014-09-24T05:32:33.864Z,10.78
2014-09-24T05:33:38.538Z,10.81
2014-09-24T05:34:43.509Z,10.87
2014-09-24T05:35:48.198Z,11
2014-09-24T05:36:52.872Z,10.67
2014-09-24T05:37:57.843Z,10.56
2014-09-24T05:39:02.532Z,10.8
2014-09-24T05:40:07.504Z,10.9
2014-09-24T05:41:12.178Z,10.9
2014-09-24T05:42:17.163Z,11.18
2014-09-24T05:43:21.838Z,10.9
2014-09-24T05:44:26.809Z,10.68
2014-09-24T05:45:31.498Z,10.84
2014-09-24T05:46:36.172Z,11.02
2014-09-24T05:47:40.846Z,11.16
2014-09-24T05:48:45.536Z,11.22
2014-09-24T05:49:50.506Z,11.22
2014-09-24T05:50:55.180Z,11.17
2014-09-24T05:51:59.855Z,11.03
2014-09-24T05:53:04.559Z,10.96
2014-09-24T05:54:09.234Z,11.24
2014-09-24T05:55:14.219Z,11.29
2014-09-24T05:56:18.940Z,11.41
2014-09-24T05:57:23.615Z,11.53
2014-09-24T05:58:27.617Z,11.53
2014-09-24T05:59:32.291Z,11.56
2014-09-24T06:00:36.965Z,11.36
2014-09-24T06:01:41.654Z,11.14
2014-09-24T06:02:46.328Z,11.36
2014-09-24T06:03:51.019Z,11.29
2014-09-24T06:04:55.692Z,11.54
2014-09-24T06:06:00.365Z,11.8
2014-09-24T06:07:05.086Z,11.86
2014-09-24T06:08:09.761Z,12.04
2014-09-24T06:09:14.450Z,12.08
2014-09-24T06:10:19.123Z,12.2
2014-09-24T06:11:23.797Z,12.16
2014-09-24T06:12:28.471Z,12.47
2014-09-24T06:13:33.162Z,13.17
2014-09-24T06:14:37.836Z,13.66
2014-09-24T06:15:42.509Z,13.99
2014-09-24T06:16:47.199Z,14.69
2014-09-24T06:17:52.170Z,14.88
2014-09-24T06:18:56.859Z,14.5
2014-09-24T06:20:01.534Z,15.25
2014-09-24T06:21:06.223Z,16.4
2014-09-24T06:22:10.912Z,17.04
2014-09-24T06:23:15.587Z,18.18
2014-09-24T06:24:20.572Z,19.11
2014-09-24T06:25:25.560Z,20.69
2014-09-24T06:26:30.233Z,21.74
2014-09-24T06:27:34.911Z,22.41
2014-09-24T06:28:39.602Z,23.37
2014-09-24T06:29:44.306Z,24.4
2014-09-24T06:30:48.996Z,25.35
2014-09-24T06:31:53.670Z,25.35
2014-09-24T06:32:58.360Z,26.12
2014-09-24T06:34:03.049Z,26.64
2014-09-24T06:35:08.051Z,26.72
2014-09-24T06:36:12.741Z,26.87
2014-09-24T06:37:17.430Z,27.03
2014-09-24T06:38:22.121Z,27.02
2014-09-24T06:39:26.809Z,27.38
2014-09-24T06:40:31.500Z,27.58
2014-09-24T06:41:36.188Z,27.03
2014-09-24T06:42:40.879Z,26.6
2014-09-24T06:43:45.567Z,27.37
2014-09-24T06:44:50.273Z,27.05
2014-09-24T06:45:55.150Z,26.84
2014-09-24T06:46:59.856Z,28.26
2014-09-24T06:48:04.561Z,27.84
2014-09-24T06:49:09.266Z,27.25
2014-09-24T06:50:13.955Z,27.51
2014-09-24T06:51:18.645Z,27.48
2014-09-24T06:52:23.334Z,25.36
2014-09-24T06:53:28.040Z,25.68
2014-09-24T06:54:32.730Z,26.86
2014-09-24T06:55:37.418Z,27.79
2014-09-24T06:56:42.109Z,27.95
2014-09-24T06:57:46.797Z,28.8
2014-09-24T06:58:51.488Z,28.32
2014-09-24T06:59:56.177Z,27.5
2014-09-24T07:01:00.867Z,26.78
2014-09-24T07:02:05.556Z,27.36
2014-09-24T07:03:10.262Z,27.21
2014-09-24T07:04:14.951Z,25.66
2014-09-24T07:05:19.641Z,24.93
2014-09-24T07:06:24.331Z,23.44
2014-09-24T07:07:29.020Z,22
2014-09-24T07:08:34.007Z,21.56
2014-09-24T07:09:38.711Z,20.82
2014-09-24T07:10:43.402Z,19.92
2014-09-24T07:11:48.090Z,19.84
2014-09-24T07:12:53.077Z,19.49
2014-09-24T07:13:57.750Z,19.17
2014-09-24T07:15:02.441Z,18.69
2014-09-24T07:16:07.130Z,18.12
2014-09-24T07:17:11.820Z,18.24
2014-09-24T07:18:16.509Z,18.18
2014-09-24T07:19:21.199Z,18.14
2014-09-24T07:20:25.888Z,18.08
2014-09-24T07:21:30.578Z,17.95
2014-09-24T07:22:35.267Z,17.42
2014-09-24T07:23:39.958Z,17.55
2014-09-24T07:24:44.647Z,17.47
2014-09-24T07:25:49.618Z,17.1
2014-09-24T07:26:54.603Z,17.14
2014-09-24T07:27:59.293Z,17.22
2014-09-24T07:29:03.968Z,17.09
2014-09-24T07:30:08.656Z,16.83
2014-09-24T07:31:13.628Z,16.45
2014-09-24T07:32:18.318Z,16.66
2014-09-24T07:33:22.991Z,16.85
2014-09-24T07:34:27.681Z,16.77
2014-09-24T07:35:32.355Z,16.74
2014-09-24T07:36:37.044Z,16.18
2014-09-24T07:37:41.734Z,16.59
2014-09-24T07:38:46.423Z,16.58
2014-09-24T07:39:51.395Z,16.62
2014-09-24T07:40:56.085Z,16.81
2014-09-24T07:42:00.757Z,16.68
2014-09-24T07:43:05.448Z,16.7
2014-09-24T07:44:10.122Z,16.46
2014-09-24T07:45:14.811Z,16.42
2014-09-24T07:46:19.484Z,16.54
2014-09-24T07:47:24.472Z,16.66
2014-09-24T07:48:29.145Z,16.72
2014-09-24T07:49:34.132Z,16.98
2014-09-24T07:50:39.103Z,17.01
2014-09-24T07:51:43.792Z,16.98
2014-09-24T07:52:48.467Z,17.36
2014-09-24T07:53:53.155Z,17.47
2014-09-24T07:54:57.829Z,17.08
2014-09-24T07:56:02.520Z,17.14
2014-09-24T07:57:07.505Z,17.04
2014-09-24T07:58:12.196Z,17.28
2014-09-24T07:59:16.885Z,16.83
2014-09-24T08:00:21.575Z,16.92
2014-09-24T08:01:26.545Z,16.96
2014-09-24T08:02:31.235Z,17.12
2014-09-24T08:03:36.206Z,17.09
2014-09-24T08:04:40.895Z,17.16
2014-09-24T08:05:45.570Z,17.26
2014-09-24T08:06:50.555Z,17.4
2014-09-24T08:07:55.526Z,17.35
2014-09-24T08:09:00.217Z,17.38
2014-09-24T08:10:04.203Z,17.05
2014-09-24T08:11:08.892Z,17.2
2014-09-24T08:12:13.565Z,17.25
2014-09-24T08:13:18.256Z,17.25
2014-09-24T08:14:23.242Z,17.05
2014-09-24T08:15:28.213Z,16.96
2014-09-24T08:16:32.903Z,16.94
2014-09-24T08:17:37.576Z,17.13
2014-09-24T08:18:42.266Z,16.96
2014-09-24T08:19:47.252Z,16.8
2014-09-24T08:20:51.239Z,16.78
2014-09-24T08:21:55.928Z,16.6
2014-09-24T08:23:00.916Z,16.58
2014-09-24T08:24:05.588Z,16.54
2014-09-24T08:25:10.278Z,16.49
2014-09-24T08:26:14.953Z,16.85
2014-09-24T08:27:19.938Z,16.6
2014-09-24T08:28:24.910Z,16.9
2014-09-24T08:29:29.599Z,17.08
2014-09-24T08:30:33.586Z,17.06
2014-09-24T08:31:38.571Z,16.78
2014-09-24T08:32:43.277Z,17.25
2014-09-24T08:33:47.951Z,17.59
2014-09-24T08:34:52.641Z,17.04
2014-09-24T08:35:57.611Z,16.74
2014-09-24T08:37:02.301Z,16.69
2014-09-24T08:38:06.975Z,16.89
2014-09-24T08:39:11.664Z,17.52
2014-09-24T08:40:16.338Z,17.46
2014-09-24T08:41:21.029Z,16.83
2014-09-24T08:42:25.702Z,16.68
2014-09-24T08:43:30.391Z,16.54
2014-09-24T08:44:35.105Z,16.54
2014-09-24T08:45:39.836Z,16.57
2014-09-24T08:46:44.848Z,16.8
2014-09-24T08:47:49.564Z,16.71
2014-09-24T08:48:54.287Z,16.78
2014-09-24T08:49:58.991Z,16.68
2014-09-24T08:51:03.710Z,16.99
2014-09-24T08:52:08.416Z,17.23
2014-09-24T08:53:13.104Z,17.49
2014-09-24T08:54:17.802Z,17.55
2014-09-24T08:55:22.779Z,17.72
2014-09-24T08:56:27.770Z,17.6
2014-09-24T08:57:32.747Z,17.54
2014-09-24T08:58:37.738Z,17.34
2014-09-24T08:59:42.711Z,17.5
2014-09-24T09:00:47.684Z,17.43
2014-09-24T09:01:52.672Z,17.41
2014-09-24T09:02:57.365Z,17.5
2014-09-24T09:04:02.040Z,17.66
2014-09-24T09:05:06.730Z,17.23
2014-09-24T09:06:11.405Z,17.41
2014-09-24T09:07:16.095Z,17.4
2014-09-24T09:08:20.769Z,17.35
2014-09-24T09:09:25.460Z,17.29
2014-09-24T09:10:30.149Z,17.56
2014-09-24T09:11:35.120Z,17.41
2014-09-24T09:12:40.106Z,17.42
2014-09-24T09:13:44.796Z,17.72
2014-09-24T09:14:49.485Z,17.72
2014-09-24T09:15:54.159Z,17.9
2014-09-24T09:16:58.850Z,17.92
2014-09-24T09:18:03.538Z,18.04
2014-09-24T09:19:07.541Z,17.8
2014-09-24T09:20:12.512Z,17.58
2014-09-24T09:21:17.202Z,17.64
2014-09-24T09:22:22.187Z,17.49
2014-09-24T09:23:26.862Z,17.56
2014-09-24T09:24:31.551Z,17.96
2014-09-24T09:25:36.225Z,18.25
2014-09-24T09:26:40.930Z,18.22
2014-09-24T09:27:45.604Z,18.24
2014-09-24T09:28:50.294Z,18.06
2014-09-24T09:29:54.983Z,18.25
2014-09-24T09:31:00.251Z,18.65
2014-09-24T09:32:04.940Z,18.57
2014-09-24T09:33:09.630Z,18.2
2014-09-24T09:34:14.305Z,18.42
2014-09-24T09:35:18.993Z,18.32
2014-09-24T09:36:23.668Z,18.25
2014-09-24T09:37:28.358Z,18.48
2014-09-24T09:38:33.031Z,18.65
2014-09-24T09:39:37.721Z,18.93
2014-09-24T09:40:42.410Z,18.86
2014-09-24T09:41:47.100Z,18.79
2014-09-24T09:42:52.071Z,18.63
2014-09-24T09:43:56.073Z,18.46
2014-09-24T09:45:00.762Z,18.8
2014-09-24T09:46:05.437Z,19.05
2014-09-24T09:47:10.127Z,18.7
2014-09-24T09:48:14.799Z,18.7
2014-09-24T09:49:19.490Z,18.57
2014-09-24T09:50:24.476Z,18.57
2014-09-24T09:51:28.463Z,18.66
2014-09-24T09:52:33.151Z,18.64
2014-09-24T09:53:37.842Z,18.91
2014-09-24T09:54:42.812Z,19.22
2014-09-24T09:55:47.502Z,18.99
2014-09-24T09:56:52.488Z,19.14
2014-09-24T09:57:57.475Z,19.31
2014-09-24T09:59:02.149Z,19.04
2014-09-24T10:00:06.839Z,19.06
2014-09-24T10:01:11.529Z,19
2014-09-24T10:02:16.201Z,19.14
2014-09-24T10:03:20.892Z,19
2014-09-24T10:04:25.566Z,19.2
2014-09-24T10:05:30.254Z,19.4
2014-09-24T10:06:34.928Z,19.3
2014-09-24T10:07:39.916Z,19.24
2014-09-24T10:08:44.589Z,19.47
2014-09-24T10:09:49.279Z,19.72
2014-09-24T10:10:54.265Z,19.64
2014-09-24T10:11:59.236Z,19.56
2014-09-24T10:13:03.926Z,19.5
2014-09-24T10:14:08.631Z,19.16
2014-09-24T10:15:13.320Z,19.26
2014-09-24T10:16:17.995Z,19.64
2014-09-24T10:17:22.684Z,19.71
2014-09-24T10:18:27.671Z,19.85
2014-09-24T10:19:32.360Z,19.92
2014-09-24T10:20:37.033Z,19.76
2014-09-24T10:21:42.021Z,19.38
2014-09-24T10:22:46.725Z,19.01
2014-09-24T10:23:51.400Z,19.43
2014-09-24T10:24:56.386Z,19.64
2014-09-24T10:26:01.076Z,19.62
2014-09-24T10:27:05.765Z,19.82
2014-09-24T10:28:10.455Z,19.72
2014-09-24T10:29:15.128Z,19.86
2014-09-24T10:30:20.115Z,19.92
2014-09-24T10:31:24.804Z,20.13
2014-09-24T10:32:29.478Z,20.25
2014-09-24T10:33:34.168Z,20.24
2014-09-24T10:34:39.155Z,20.44
2014-09-24T10:35:43.845Z,20.64
2014-09-24T10:36:48.533Z,20.64
2014-09-24T10:37:53.224Z,20.47
2014-09-24T10:38:57.897Z,21.04
2014-09-24T10:40:02.587Z,20.88
2014-09-24T10:41:07.276Z,20.88
2014-09-24T10:42:11.966Z,20.88
2014-09-24T10:43:16.655Z,21.09
2014-09-24T10:44:21.329Z,20.92
2014-09-24T10:45:26.019Z,21.01
2014-09-24T10:46:30.708Z,21.02
2014-09-24T10:47:35.398Z,21.04
2014-09-24T10:48:40.369Z,21.06
2014-09-24T10:49:45.356Z,20.95
2014-09-24T10:50:50.060Z,21.04
2014-09-24T10:51:54.735Z,20.97
2014-09-24T10:52:59.424Z,20.76
2014-09-24T10:54:04.114Z,20.99
2014-09-24T10:55:09.100Z,20.82
2014-09-24T10:56:13.789Z,20.81
2014-09-24T10:57:18.464Z,20.72
2014-09-24T10:58:23.153Z,20.84
2014-09-24T10:59:27.843Z,20.68
2014-09-24T11:00:32.532Z,20.91
2014-09-24T11:01:37.223Z,21.02
2014-09-24T11:02:41.896Z,20.86
2014-09-24T11:03:46.586Z,20.69
2014-09-24T11:04:51.275Z,20.74
2014-09-24T11:05:55.965Z,20.83
2014-09-24T11:07:00.655Z,21.19
2014-09-24T11:08:05.344Z,20.96
2014-09-24T11:09:10.034Z,20.98
2014-09-24T11:10:14.723Z,21.13
2014-09-24T11:11:19.397Z,21.22
2014-09-24T11:12:24.086Z,21
2014-09-24T11:13:29.073Z,21.04
2014-09-24T11:14:34.059Z,21.24
2014-09-24T11:15:38.749Z,21.3
2014-09-24T11:16:43.438Z,21.44
2014-09-24T11:17:48.143Z,21.33
2014-09-24T11:18:52.834Z,21.3
2014-09-24T11:19:57.522Z,21.21
2014-09-24T11:21:02.213Z,21.16
2014-09-24T11:22:06.901Z,21.22
2014-09-24T11:23:11.592Z,21.18
2014-09-24T11:24:16.280Z,21.12
2014-09-24T11:25:20.970Z,21.3
2014-09-24T11:26:25.645Z,21.32
2014-09-24T11:27:30.631Z,21.48
2014-09-24T11:28:35.321Z,21.4
2014-09-24T11:29:40.307Z,21.23
2014-09-24T11:30:44.981Z,21.29
2014-09-24T11:31:48.983Z,21.49
2014-09-24T11:32:53.689Z,21.47
2014-09-24T11:33:58.674Z,21.42
2014-09-24T11:35:03.364Z,21.46
2014-09-24T11:36:08.039Z,21.46
2014-09-24T11:37:12.727Z,21.42
2014-09-24T11:38:17.715Z,21.41
2014-09-24T11:39:22.404Z,21.5
2014-09-24T11:40:27.094Z,21.51
2014-09-24T11:41:31.783Z,21.4
2014-09-24T11:42:36.473Z,21.14
2014-09-24T11:43:41.162Z,21.27
2014-09-24T11:44:46.148Z,21.54
2014-09-24T11:45:51.135Z,21.58
2014-09-24T11:46:56.121Z,21.46
2014-09-24T11:48:00.796Z,21.44
2014-09-24T11:49:05.798Z,21.58
2014-09-24T11:50:10.488Z,21.7
2014-09-24T11:51:15.176Z,21.63
2014-09-24T11:52:19.867Z,21.25
2014-09-24T11:53:24.540Z,20.96
2014-09-24T11:54:29.230Z,21.25
2014-09-24T11:55:33.919Z,21.34
2014-09-24T11:56:38.609Z,21.52
2014-09-24T11:57:43.298Z,21.4
2014-09-24T11:58:47.988Z,21.44
2014-09-24T11:59:52.677Z,21.38
2014-09-24T12:00:57.351Z,21.43
2014-09-24T12:02:02.041Z,21.54
2014-09-24T12:03:06.730Z,21.46
2014-09-24T12:04:10.732Z,21.28
2014-09-24T12:05:15.423Z,21.03
2014-09-24T12:06:20.112Z,21.09
2014-09-24T12:07:24.785Z,20.76
2014-09-24T12:08:29.506Z,20.73
2014-09-24T12:09:34.181Z,21.23
2014-09-24T12:10:38.870Z,21.52
2014-09-24T12:11:43.560Z,21.67
2014-09-24T12:12:48.249Z,21.84
2014-09-24T12:13:52.939Z,21.94
2014-09-24T12:14:57.644Z,22.06
2014-09-24T12:16:02.333Z,22.06
2014-09-24T12:17:07.023Z,22.06
2014-09-24T12:18:12.009Z,22.19
2014-09-24T12:19:16.683Z,22.07
2014-09-24T12:20:21.374Z,22.29
2014-09-24T12:21:26.062Z,22.48
2014-09-24T12:22:30.753Z,22.34
2014-09-24T12:23:35.441Z,22.52
2014-09-24T12:24:40.429Z,22.5
2014-09-24T12:25:45.415Z,22.69
2014-09-24T12:26:50.104Z,22.67
2014-09-24T12:27:55.075Z,22.79
2014-09-24T12:28:59.765Z,22.87
2014-09-24T12:30:04.454Z,22.88
2014-09-24T12:31:09.159Z,22.42
2014-09-24T12:32:13.849Z,22.73
2014-09-24T12:33:18.538Z,22.72
2014-09-24T12:34:23.243Z,22.28
2014-09-24T12:35:27.933Z,22.45
2014-09-24T12:36:32.608Z,22.38
2014-09-24T12:37:37.296Z,22.6
2014-09-24T12:38:41.987Z,22.84
2014-09-24T12:39:46.675Z,22.77
2014-09-24T12:40:51.960Z,22.7
2014-09-24T12:41:56.649Z,22.76
2014-09-24T12:43:01.339Z,22.66
2014-09-24T12:44:06.325Z,22.45
2014-09-24T12:45:10.999Z,22.28
2014-09-24T12:46:15.704Z,22.44
2014-09-24T12:47:20.378Z,22.46
2014-09-24T12:48:25.373Z,22.43
2014-09-24T12:49:30.358Z,22.36
2014-09-24T12:50:35.048Z,22.54
2014-09-24T12:51:39.723Z,22.56
2014-09-24T12:52:44.708Z,22.34
2014-09-24T12:53:49.429Z,22.61
2014-09-24T12:54:54.104Z,22.5
2014-09-24T12:55:59.089Z,22.28
2014-09-24T12:57:03.780Z,22.46
2014-09-24T12:58:08.782Z,22.5
2014-09-24T12:59:13.456Z,22.34
2014-09-24T13:00:18.146Z,22.38
2014-09-24T13:01:22.835Z,22.47
2014-09-24T13:02:27.524Z,22.43
2014-09-24T13:03:32.495Z,22.61
2014-09-24T13:04:37.184Z,22.65
2014-09-24T13:05:41.875Z,22.8
2014-09-24T13:06:46.564Z,22.7
2014-09-24T13:07:51.535Z,22.52
2014-09-24T13:08:56.225Z,22.22
2014-09-24T13:10:01.210Z,21.91
2014-09-24T13:11:06.197Z,21.75
2014-09-24T13:12:10.870Z,21.68
2014-09-24T13:13:15.858Z,21.48
2014-09-24T13:14:20.547Z,21.33
2014-09-24T13:15:25.221Z,21.32
2014-09-24T13:16:29.910Z,21.34
2014-09-24T13:17:34.601Z,21.32
2014-09-24T13:18:39.586Z,21.35
2014-09-24T13:19:44.558Z,21.37
2014-09-24T13:20:49.247Z,21.39
2014-09-24T13:21:53.937Z,21.51
2014-09-24T13:22:58.627Z,21.65
2014-09-24T13:24:03.316Z,21.42
2014-09-24T13:25:07.990Z,21.59
2014-09-24T13:26:12.679Z,21.51
2014-09-24T13:27:17.369Z,21.64
2014-09-24T13:28:22.340Z,21.27
2014-09-24T13:29:27.029Z,20.96
2014-09-24T13:30:31.719Z,21.04
2014-09-24T13:31:36.393Z,20.83
2014-09-24T13:32:41.083Z,20.94
2014-09-24T13:33:46.068Z,20.98
2014-09-24T13:34:50.742Z,20.48
2014-09-24T13:35:55.433Z,20.6
2014-09-24T13:37:00.122Z,20.62
2014-09-24T13:38:04.795Z,20.79
2014-09-24T13:39:09.486Z,21.02
2014-09-24T13:40:14.174Z,21.13
2014-09-24T13:41:18.177Z,21.1
2014-09-24T13:42:22.851Z,20.96
2014-09-24T13:43:27.541Z,20.95
2014-09-24T13:44:32.230Z,20.79
2014-09-24T13:45:36.904Z,20.79
2014-09-24T13:46:41.593Z,20.81
2014-09-24T13:47:46.283Z,20.92
2014-09-24T13:48:51.254Z,20.99
2014-09-24T13:49:56.241Z,20.99
2014-09-24T13:51:00.931Z,20.92
2014-09-24T13:52:05.603Z,21.04
2014-09-24T13:53:09.605Z,20.74
2014-09-24T13:54:14.296Z,20.67
2014-09-24T13:55:18.985Z,20.82
2014-09-24T13:56:23.675Z,20.74
2014-09-24T13:57:28.349Z,20.86